Terminal Aerodrome Forecast
Issued by NWS Lake Charles, LA

Home | Current Version | Previous Version | Text Only | Print | Product List | Glossary On
Versions: 1 2 3 4 5 6 7 8 9 10 11 12 13 14
000
FTUS44 KLCH 060520
TAFBPT
TAF
KBPT 060520Z 0606/0706 17008KT P6SM FEW023 SCT190
     FM061000 16005KT P6SM OVC017
     FM061500 18012G18KT P6SM BKN030 BKN200
     FM061900 17014KT P6SM SCT030
     FM070000 16010KT P6SM FEW020
     FM070200 16008KT P6SM BKN020=

USA.gov is the U.S. government's official web portal to all federal, state and local government web resources and services.